sensor_id;sensor_type;location;lat;lon;timestamp;P1;durP1;ratioP1;P2;durP2;ratioP2
46136;SDS011;31871;49.418;8.752;2022-07-22T00:01:49;10.52;;;6.30;;
46136;SDS011;31871;49.418;8.752;2022-07-22T00:04:14;12.43;;;6.05;;
46136;SDS011;31871;49.418;8.752;2022-07-22T00:06:41;17.73;;;6.45;;
46136;SDS011;31871;49.418;8.752;2022-07-22T00:09:07;11.13;;;6.22;;
46136;SDS011;31871;49.418;8.752;2022-07-22T00:11:32;11.05;;;6.10;;
46136;SDS011;31871;49.418;8.752;2022-07-22T00:13:58;11.35;;;6.30;;
46136;SDS011;31871;49.418;8.752;2022-07-22T00:16:24;13.43;;;5.85;;
46136;SDS011;31871;49.418;8.752;2022-07-22T00:18:49;10.13;;;6.18;;
46136;SDS011;31871;49.418;8.752;2022-07-22T00:21:15;10.85;;;6.45;;
46136;SDS011;31871;49.418;8.752;2022-07-22T00:23:41;9.63;;;5.80;;
46136;SDS011;31871;49.418;8.752;2022-07-22T00:26:07;11.27;;;6.22;;
46136;SDS011;31871;49.418;8.752;2022-07-22T00:28:33;11.95;;;6.32;;
46136;SDS011;31871;49.418;8.752;2022-07-22T00:30:59;13.50;;;6.10;;
46136;SDS011;31871;49.418;8.752;2022-07-22T00:33:24;10.93;;;6.78;;
46136;SDS011;31871;49.418;8.752;2022-07-22T00:35:50;11.52;;;6.50;;
46136;SDS011;31871;49.418;8.752;2022-07-22T00:38:16;9.40;;;5.32;;
46136;SDS011;31871;49.418;8.752;2022-07-22T00:40:41;11.80;;;6.20;;
46136;SDS011;31871;49.418;8.752;2022-07-22T00:43:07;10.32;;;5.63;;
46136;SDS011;31871;49.418;8.752;2022-07-22T00:45:32;10.45;;;5.93;;
46136;SDS011;31871;49.418;8.752;2022-07-22T00:47:58;12.30;;;6.47;;
46136;SDS011;31871;49.418;8.752;2022-07-22T00:50:24;11.25;;;6.05;;
46136;SDS011;31871;49.418;8.752;2022-07-22T00:52:50;13.45;;;6.53;;
46136;SDS011;31871;49.418;8.752;2022-07-22T00:55:15;9.02;;;6.03;;
46136;SDS011;31871;49.418;8.752;2022-07-22T00:57:41;10.68;;;6.28;;
46136;SDS011;31871;49.418;8.752;2022-07-22T01:00:09;16.02;;;6.47;;
46136;SDS011;31871;49.418;8.752;2022-07-22T01:02:38;12.80;;;6.30;;
46136;SDS011;31871;49.418;8.752;2022-07-22T01:05:04;15.05;;;6.53;;
46136;SDS011;31871;49.418;8.752;2022-07-22T01:07:31;12.55;;;6.60;;
46136;SDS011;31871;49.418;8.752;2022-07-22T01:09:57;10.63;;;5.97;;
46136;SDS011;31871;49.418;8.752;2022-07-22T01:12:22;12.70;;;6.28;;
46136;SDS011;31871;49.418;8.752;2022-07-22T01:14:48;12.77;;;6.60;;
46136;SDS011;31871;49.418;8.752;2022-07-22T01:17:14;13.00;;;6.35;;
46136;SDS011;31871;49.418;8.752;2022-07-22T01:19:39;10.10;;;6.20;;
46136;SDS011;31871;49.418;8.752;2022-07-22T01:22:05;18.52;;;6.30;;
46136;SDS011;31871;49.418;8.752;2022-07-22T01:24:31;14.32;;;6.88;;
46136;SDS011;31871;49.418;8.752;2022-07-22T01:26:57;14.77;;;7.18;;
46136;SDS011;31871;49.418;8.752;2022-07-22T01:29:23;21.60;;;6.82;;
46136;SDS011;31871;49.418;8.752;2022-07-22T01:31:49;10.90;;;6.95;;
46136;SDS011;31871;49.418;8.752;2022-07-22T01:34:15;14.07;;;6.80;;
46136;SDS011;31871;49.418;8.752;2022-07-22T01:36:41;9.35;;;5.97;;
46136;SDS011;31871;49.418;8.752;2022-07-22T01:39:07;12.50;;;6.38;;
46136;SDS011;31871;49.418;8.752;2022-07-22T01:41:32;11.02;;;5.85;;
46136;SDS011;31871;49.418;8.752;2022-07-22T01:43:58;14.30;;;6.80;;
46136;SDS011;31871;49.418;8.752;2022-07-22T01:46:24;11.65;;;6.55;;
46136;SDS011;31871;49.418;8.752;2022-07-22T01:48:52;9.02;;;5.53;;
46136;SDS011;31871;49.418;8.752;2022-07-22T01:51:18;9.75;;;6.07;;
46136;SDS011;31871;49.418;8.752;2022-07-22T01:53:44;13.65;;;7.10;;
46136;SDS011;31871;49.418;8.752;2022-07-22T01:56:10;15.27;;;6.63;;
46136;SDS011;31871;49.418;8.752;2022-07-22T01:58:36;14.23;;;7.05;;
46136;SDS011;31871;49.418;8.752;2022-07-22T02:01:02;13.05;;;6.07;;
46136;SDS011;31871;49.418;8.752;2022-07-22T02:03:28;12.15;;;5.65;;
46136;SDS011;31871;49.418;8.752;2022-07-22T02:05:53;11.80;;;6.43;;
46136;SDS011;31871;49.418;8.752;2022-07-22T02:08:19;11.45;;;6.03;;
46136;SDS011;31871;49.418;8.752;2022-07-22T02:10:45;11.13;;;6.25;;
46136;SDS011;31871;49.418;8.752;2022-07-22T02:13:10;13.85;;;6.15;;
46136;SDS011;31871;49.418;8.752;2022-07-22T02:15:36;9.23;;;5.80;;
46136;SDS011;31871;49.418;8.752;2022-07-22T02:18:20;13.25;;;5.70;;
46136;SDS011;31871;49.418;8.752;2022-07-22T02:20:46;18.35;;;6.18;;
46136;SDS011;31871;49.418;8.752;2022-07-22T02:23:12;13.75;;;6.47;;
46136;SDS011;31871;49.418;8.752;2022-07-22T02:25:38;13.35;;;6.35;;
46136;SDS011;31871;49.418;8.752;2022-07-22T02:28:05;11.57;;;6.22;;
46136;SDS011;31871;49.418;8.752;2022-07-22T02:30:30;10.82;;;6.18;;
46136;SDS011;31871;49.418;8.752;2022-07-22T02:32:57;13.48;;;6.03;;
46136;SDS011;31871;49.418;8.752;2022-07-22T02:35:23;11.80;;;6.35;;
46136;SDS011;31871;49.418;8.752;2022-07-22T02:37:49;17.25;;;7.15;;
46136;SDS011;31871;49.418;8.752;2022-07-22T02:40:14;11.02;;;5.72;;
46136;SDS011;31871;49.418;8.752;2022-07-22T02:42:40;9.65;;;6.10;;
46136;SDS011;31871;49.418;8.752;2022-07-22T02:45:06;11.65;;;6.20;;
46136;SDS011;31871;49.418;8.752;2022-07-22T02:47:32;10.73;;;6.10;;
46136;SDS011;31871;49.418;8.752;2022-07-22T02:49:58;11.05;;;6.15;;
46136;SDS011;31871;49.418;8.752;2022-07-22T02:52:23;14.20;;;6.28;;
46136;SDS011;31871;49.418;8.752;2022-07-22T02:54:49;14.30;;;6.68;;
46136;SDS011;31871;49.418;8.752;2022-07-22T02:57:15;15.60;;;6.88;;
46136;SDS011;31871;49.418;8.752;2022-07-22T02:59:40;12.45;;;6.28;;
46136;SDS011;31871;49.418;8.752;2022-07-22T03:02:06;12.55;;;7.07;;
46136;SDS011;31871;49.418;8.752;2022-07-22T03:04:32;11.48;;;6.57;;
46136;SDS011;31871;49.418;8.752;2022-07-22T03:06:58;14.43;;;6.05;;
46136;SDS011;31871;49.418;8.752;2022-07-22T03:09:23;12.95;;;6.07;;
46136;SDS011;31871;49.418;8.752;2022-07-22T03:11:49;10.90;;;6.68;;
46136;SDS011;31871;49.418;8.752;2022-07-22T03:14:14;12.63;;;6.47;;
46136;SDS011;31871;49.418;8.752;2022-07-22T03:16:41;12.13;;;6.88;;
46136;SDS011;31871;49.418;8.752;2022-07-22T03:19:06;9.55;;;5.88;;
46136;SDS011;31871;49.418;8.752;2022-07-22T03:21:32;13.15;;;6.47;;
46136;SDS011;31871;49.418;8.752;2022-07-22T03:23:58;13.60;;;6.10;;
46136;SDS011;31871;49.418;8.752;2022-07-22T03:26:24;11.38;;;6.68;;
46136;SDS011;31871;49.418;8.752;2022-07-22T03:28:50;20.30;;;7.05;;
46136;SDS011;31871;49.418;8.752;2022-07-22T03:31:15;12.00;;;6.40;;
46136;SDS011;31871;49.418;8.752;2022-07-22T03:33:41;11.00;;;6.32;;
46136;SDS011;31871;49.418;8.752;2022-07-22T03:36:07;11.23;;;5.75;;
46136;SDS011;31871;49.418;8.752;2022-07-22T03:38:33;13.05;;;6.85;;
46136;SDS011;31871;49.418;8.752;2022-07-22T03:40:59;11.35;;;6.63;;
46136;SDS011;31871;49.418;8.752;2022-07-22T03:43:25;14.13;;;6.72;;
46136;SDS011;31871;49.418;8.752;2022-07-22T03:45:51;13.90;;;6.57;;
46136;SDS011;31871;49.418;8.752;2022-07-22T03:48:16;10.73;;;5.97;;
46136;SDS011;31871;49.418;8.752;2022-07-22T03:50:42;13.13;;;7.00;;
46136;SDS011;31871;49.418;8.752;2022-07-22T03:53:07;14.35;;;6.25;;
46136;SDS011;31871;49.418;8.752;2022-07-22T03:55:33;10.57;;;6.07;;
46136;SDS011;31871;49.418;8.752;2022-07-22T03:57:58;9.63;;;5.93;;
46136;SDS011;31871;49.418;8.752;2022-07-22T04:00:24;10.45;;;6.25;;
46136;SDS011;31871;49.418;8.752;2022-07-22T04:02:49;15.13;;;5.85;;
46136;SDS011;31871;49.418;8.752;2022-07-22T04:05:15;12.35;;;5.95;;
46136;SDS011;31871;49.418;8.752;2022-07-22T04:07:41;11.02;;;5.82;;
46136;SDS011;31871;49.418;8.752;2022-07-22T04:10:06;10.73;;;6.03;;
46136;SDS011;31871;49.418;8.752;2022-07-22T04:12:33;13.50;;;6.07;;
46136;SDS011;31871;49.418;8.752;2022-07-22T04:15:00;11.90;;;6.15;;
46136;SDS011;31871;49.418;8.752;2022-07-22T04:17:26;11.15;;;5.95;;
46136;SDS011;31871;49.418;8.752;2022-07-22T04:19:51;11.25;;;5.97;;
46136;SDS011;31871;49.418;8.752;2022-07-22T04:22:17;13.80;;;6.38;;
46136;SDS011;31871;49.418;8.752;2022-07-22T04:24:43;17.05;;;6.53;;
46136;SDS011;31871;49.418;8.752;2022-07-22T04:27:08;10.70;;;6.28;;
46136;SDS011;31871;49.418;8.752;2022-07-22T04:29:34;15.45;;;6.38;;
46136;SDS011;31871;49.418;8.752;2022-07-22T04:31:59;12.35;;;5.63;;
46136;SDS011;31871;49.418;8.752;2022-07-22T04:34:25;12.70;;;6.38;;
46136;SDS011;31871;49.418;8.752;2022-07-22T04:36:50;10.20;;;5.70;;
46136;SDS011;31871;49.418;8.752;2022-07-22T04:39:16;8.85;;;5.60;;
46136;SDS011;31871;49.418;8.752;2022-07-22T04:41:43;10.60;;;5.70;;
46136;SDS011;31871;49.418;8.752;2022-07-22T04:44:08;12.48;;;6.40;;
46136;SDS011;31871;49.418;8.752;2022-07-22T04:46:34;16.98;;;6.57;;
46136;SDS011;31871;49.418;8.752;2022-07-22T04:49:00;10.18;;;5.38;;
46136;SDS011;31871;49.418;8.752;2022-07-22T04:51:25;9.05;;;5.28;;
46136;SDS011;31871;49.418;8.752;2022-07-22T04:53:51;12.80;;;6.10;;
46136;SDS011;31871;49.418;8.752;2022-07-22T04:56:16;13.68;;;5.13;;
46136;SDS011;31871;49.418;8.752;2022-07-22T04:58:42;13.85;;;6.07;;
46136;SDS011;31871;49.418;8.752;2022-07-22T05:01:08;14.70;;;6.35;;
46136;SDS011;31871;49.418;8.752;2022-07-22T05:03:33;12.93;;;5.47;;
46136;SDS011;31871;49.418;8.752;2022-07-22T05:06:02;13.13;;;5.55;;
46136;SDS011;31871;49.418;8.752;2022-07-22T05:08:27;9.70;;;5.20;;
46136;SDS011;31871;49.418;8.752;2022-07-22T05:10:53;10.27;;;5.82;;
46136;SDS011;31871;49.418;8.752;2022-07-22T05:13:18;10.25;;;5.38;;
46136;SDS011;31871;49.418;8.752;2022-07-22T05:15:44;11.30;;;6.45;;
46136;SDS011;31871;49.418;8.752;2022-07-22T05:18:10;13.45;;;5.88;;
46136;SDS011;31871;49.418;8.752;2022-07-22T05:20:35;11.13;;;6.25;;
46136;SDS011;31871;49.418;8.752;2022-07-22T05:23:01;12.45;;;6.22;;
46136;SDS011;31871;49.418;8.752;2022-07-22T05:25:27;18.83;;;7.22;;
46136;SDS011;31871;49.418;8.752;2022-07-22T05:27:53;12.43;;;6.82;;
46136;SDS011;31871;49.418;8.752;2022-07-22T05:30:20;12.98;;;6.55;;
46136;SDS011;31871;49.418;8.752;2022-07-22T05:32:46;10.68;;;6.40;;
46136;SDS011;31871;49.418;8.752;2022-07-22T05:35:11;14.50;;;6.78;;
46136;SDS011;31871;49.418;8.752;2022-07-22T05:37:37;11.65;;;6.82;;
46136;SDS011;31871;49.418;8.752;2022-07-22T05:40:03;13.85;;;6.88;;
46136;SDS011;31871;49.418;8.752;2022-07-22T05:42:29;14.65;;;6.50;;
46136;SDS011;31871;49.418;8.752;2022-07-22T05:44:54;16.40;;;7.28;;
46136;SDS011;31871;49.418;8.752;2022-07-22T05:47:20;10.63;;;6.85;;
46136;SDS011;31871;49.418;8.752;2022-07-22T05:49:45;11.85;;;6.25;;
46136;SDS011;31871;49.418;8.752;2022-07-22T05:52:11;13.93;;;6.45;;
46136;SDS011;31871;49.418;8.752;2022-07-22T05:54:37;10.45;;;6.57;;
46136;SDS011;31871;49.418;8.752;2022-07-22T05:57:02;16.35;;;6.13;;
46136;SDS011;31871;49.418;8.752;2022-07-22T05:59:28;11.73;;;6.22;;
46136;SDS011;31871;49.418;8.752;2022-07-22T06:01:54;13.40;;;6.43;;
46136;SDS011;31871;49.418;8.752;2022-07-22T06:04:19;14.20;;;6.28;;
46136;SDS011;31871;49.418;8.752;2022-07-22T06:06:45;13.80;;;6.75;;
46136;SDS011;31871;49.418;8.752;2022-07-22T06:09:11;13.63;;;6.40;;
46136;SDS011;31871;49.418;8.752;2022-07-22T06:11:37;13.02;;;6.80;;
46136;SDS011;31871;49.418;8.752;2022-07-22T06:14:02;13.18;;;5.97;;
46136;SDS011;31871;49.418;8.752;2022-07-22T06:16:28;15.35;;;6.50;;
46136;SDS011;31871;49.418;8.752;2022-07-22T06:18:53;15.18;;;6.40;;
46136;SDS011;31871;49.418;8.752;2022-07-22T06:21:19;11.48;;;6.28;;
46136;SDS011;31871;49.418;8.752;2022-07-22T06:23:45;10.77;;;5.57;;
46136;SDS011;31871;49.418;8.752;2022-07-22T06:26:10;12.32;;;5.85;;
46136;SDS011;31871;49.418;8.752;2022-07-22T06:28:36;10.38;;;5.70;;
46136;SDS011;31871;49.418;8.752;2022-07-22T06:31:01;14.43;;;5.75;;
46136;SDS011;31871;49.418;8.752;2022-07-22T06:33:27;16.63;;;5.93;;
46136;SDS011;31871;49.418;8.752;2022-07-22T06:35:52;11.77;;;6.43;;
46136;SDS011;31871;49.418;8.752;2022-07-22T06:38:18;12.80;;;5.75;;
46136;SDS011;31871;49.418;8.752;2022-07-22T06:40:44;9.80;;;5.50;;
46136;SDS011;31871;49.418;8.752;2022-07-22T06:43:09;10.30;;;5.53;;
46136;SDS011;31871;49.418;8.752;2022-07-22T06:45:35;10.07;;;5.47;;
46136;SDS011;31871;49.418;8.752;2022-07-22T06:48:00;10.85;;;5.75;;
46136;SDS011;31871;49.418;8.752;2022-07-22T06:50:27;13.07;;;5.72;;
46136;SDS011;31871;49.418;8.752;2022-07-22T06:52:53;11.57;;;5.82;;
46136;SDS011;31871;49.418;8.752;2022-07-22T06:55:18;9.65;;;5.45;;
46136;SDS011;31871;49.418;8.752;2022-07-22T06:57:44;8.82;;;5.38;;
46136;SDS011;31871;49.418;8.752;2022-07-22T07:00:10;14.20;;;5.50;;
46136;SDS011;31871;49.418;8.752;2022-07-22T07:02:36;13.00;;;5.88;;
46136;SDS011;31871;49.418;8.752;2022-07-22T07:05:02;13.88;;;5.88;;
46136;SDS011;31871;49.418;8.752;2022-07-22T07:07:28;11.95;;;5.25;;
46136;SDS011;31871;49.418;8.752;2022-07-22T07:09:53;10.38;;;6.20;;
46136;SDS011;31871;49.418;8.752;2022-07-22T07:12:19;12.77;;;5.57;;
46136;SDS011;31871;49.418;8.752;2022-07-22T07:14:44;9.57;;;5.50;;
46136;SDS011;31871;49.418;8.752;2022-07-22T07:17:10;10.82;;;5.30;;
46136;SDS011;31871;49.418;8.752;2022-07-22T07:19:35;9.70;;;5.38;;
46136;SDS011;31871;49.418;8.752;2022-07-22T07:22:01;9.73;;;5.32;;
46136;SDS011;31871;49.418;8.752;2022-07-22T07:24:27;8.38;;;5.32;;
46136;SDS011;31871;49.418;8.752;2022-07-22T07:26:52;12.52;;;5.38;;
46136;SDS011;31871;49.418;8.752;2022-07-22T07:29:18;8.18;;;4.95;;
46136;SDS011;31871;49.418;8.752;2022-07-22T07:31:43;7.65;;;4.78;;
46136;SDS011;31871;49.418;8.752;2022-07-22T07:34:09;7.80;;;4.78;;
46136;SDS011;31871;49.418;8.752;2022-07-22T07:36:35;8.75;;;4.40;;
46136;SDS011;31871;49.418;8.752;2022-07-22T07:39:00;19.00;;;5.65;;
46136;SDS011;31871;49.418;8.752;2022-07-22T07:41:26;9.68;;;5.45;;
46136;SDS011;31871;49.418;8.752;2022-07-22T07:43:51;10.40;;;5.63;;
46136;SDS011;31871;49.418;8.752;2022-07-22T07:46:17;11.68;;;5.25;;
46136;SDS011;31871;49.418;8.752;2022-07-22T07:48:42;12.93;;;5.00;;
46136;SDS011;31871;49.418;8.752;2022-07-22T07:51:08;8.85;;;5.00;;
46136;SDS011;31871;49.418;8.752;2022-07-22T07:53:34;9.57;;;5.47;;
46136;SDS011;31871;49.418;8.752;2022-07-22T07:56:00;10.30;;;5.10;;
46136;SDS011;31871;49.418;8.752;2022-07-22T07:58:25;9.13;;;4.53;;
46136;SDS011;31871;49.418;8.752;2022-07-22T08:00:51;8.07;;;5.38;;
46136;SDS011;31871;49.418;8.752;2022-07-22T08:03:16;10.05;;;5.22;;
46136;SDS011;31871;49.418;8.752;2022-07-22T08:05:42;10.57;;;4.80;;
46136;SDS011;31871;49.418;8.752;2022-07-22T08:08:08;10.25;;;4.95;;
46136;SDS011;31871;49.418;8.752;2022-07-22T08:10:33;9.20;;;4.97;;
46136;SDS011;31871;49.418;8.752;2022-07-22T08:12:59;8.43;;;4.97;;
46136;SDS011;31871;49.418;8.752;2022-07-22T08:15:25;8.73;;;5.10;;
46136;SDS011;31871;49.418;8.752;2022-07-22T08:17:52;10.43;;;4.93;;
46136;SDS011;31871;49.418;8.752;2022-07-22T08:20:18;16.13;;;5.47;;
46136;SDS011;31871;49.418;8.752;2022-07-22T08:22:43;7.50;;;4.60;;
46136;SDS011;31871;49.418;8.752;2022-07-22T08:25:09;10.52;;;5.63;;
46136;SDS011;31871;49.418;8.752;2022-07-22T08:27:35;10.32;;;4.57;;
46136;SDS011;31871;49.418;8.752;2022-07-22T08:30:00;7.10;;;4.95;;
46136;SDS011;31871;49.418;8.752;2022-07-22T08:32:29;8.00;;;5.28;;
46136;SDS011;31871;49.418;8.752;2022-07-22T08:34:55;9.95;;;4.90;;
46136;SDS011;31871;49.418;8.752;2022-07-22T08:37:20;10.60;;;5.32;;
46136;SDS011;31871;49.418;8.752;2022-07-22T08:39:46;10.52;;;5.25;;
46136;SDS011;31871;49.418;8.752;2022-07-22T08:42:12;12.80;;;5.45;;
46136;SDS011;31871;49.418;8.752;2022-07-22T08:44:38;10.68;;;5.63;;
46136;SDS011;31871;49.418;8.752;2022-07-22T08:47:04;10.60;;;5.10;;
46136;SDS011;31871;49.418;8.752;2022-07-22T08:49:30;10.95;;;5.13;;
46136;SDS011;31871;49.418;8.752;2022-07-22T08:51:56;9.00;;;5.47;;
46136;SDS011;31871;49.418;8.752;2022-07-22T08:54:21;13.15;;;5.57;;
46136;SDS011;31871;49.418;8.752;2022-07-22T08:56:47;13.25;;;5.88;;
46136;SDS011;31871;49.418;8.752;2022-07-22T08:59:14;10.02;;;5.43;;
46136;SDS011;31871;49.418;8.752;2022-07-22T09:02:00;8.68;;;5.35;;
46136;SDS011;31871;49.418;8.752;2022-07-22T09:04:26;10.85;;;5.72;;
46136;SDS011;31871;49.418;8.752;2022-07-22T09:06:51;11.15;;;5.65;;
46136;SDS011;31871;49.418;8.752;2022-07-22T09:09:17;10.52;;;5.05;;
46136;SDS011;31871;49.418;8.752;2022-07-22T09:12:04;12.73;;;5.80;;
46136;SDS011;31871;49.418;8.752;2022-07-22T09:14:44;11.93;;;5.80;;
46136;SDS011;31871;49.418;8.752;2022-07-22T09:19:52;12.80;;;6.47;;
46136;SDS011;31871;49.418;8.752;2022-07-22T09:27:54;10.82;;;5.53;;
46136;SDS011;31871;49.418;8.752;2022-07-22T09:30:35;8.52;;;5.72;;
46136;SDS011;31871;49.418;8.752;2022-07-22T09:33:02;12.15;;;5.10;;
46136;SDS011;31871;49.418;8.752;2022-07-22T09:35:29;8.93;;;5.57;;
46136;SDS011;31871;49.418;8.752;2022-07-22T09:37:55;11.15;;;5.55;;
46136;SDS011;31871;49.418;8.752;2022-07-22T09:40:26;13.48;;;5.43;;
46136;SDS011;31871;49.418;8.752;2022-07-22T09:43:01;12.23;;;6.03;;
46136;SDS011;31871;49.418;8.752;2022-07-22T09:45:29;11.00;;;5.88;;
46136;SDS011;31871;49.418;8.752;2022-07-22T09:47:57;11.55;;;5.72;;
46136;SDS011;31871;49.418;8.752;2022-07-22T09:52:53;13.00;;;5.80;;
46136;SDS011;31871;49.418;8.752;2022-07-22T09:55:20;8.48;;;5.40;;
46136;SDS011;31871;49.418;8.752;2022-07-22T09:57:47;14.68;;;6.00;;
46136;SDS011;31871;49.418;8.752;2022-07-22T10:00:15;13.98;;;5.47;;
46136;SDS011;31871;49.418;8.752;2022-07-22T10:05:14;8.68;;;5.55;;
46136;SDS011;31871;49.418;8.752;2022-07-22T10:07:42;12.07;;;5.40;;
46136;SDS011;31871;49.418;8.752;2022-07-22T10:10:10;7.97;;;5.35;;
46136;SDS011;31871;49.418;8.752;2022-07-22T10:12:38;10.40;;;5.47;;
46136;SDS011;31871;49.418;8.752;2022-07-22T10:15:05;10.57;;;5.45;;
46136;SDS011;31871;49.418;8.752;2022-07-22T10:17:33;10.02;;;5.00;;
46136;SDS011;31871;49.418;8.752;2022-07-22T10:20:02;9.48;;;5.18;;
46136;SDS011;31871;49.418;8.752;2022-07-22T10:25:06;9.65;;;5.90;;
46136;SDS011;31871;49.418;8.752;2022-07-22T10:27:52;13.27;;;5.65;;
46136;SDS011;31871;49.418;8.752;2022-07-22T10:30:22;10.73;;;5.78;;
46136;SDS011;31871;49.418;8.752;2022-07-22T10:33:09;10.95;;;5.55;;
46136;SDS011;31871;49.418;8.752;2022-07-22T10:35:59;9.98;;;5.90;;
46136;SDS011;31871;49.418;8.752;2022-07-22T10:38:27;10.63;;;5.80;;
46136;SDS011;31871;49.418;8.752;2022-07-22T10:40:58;12.50;;;5.72;;
46136;SDS011;31871;49.418;8.752;2022-07-22T10:43:47;11.18;;;6.18;;
46136;SDS011;31871;49.418;8.752;2022-07-22T10:46:13;11.07;;;5.57;;
46136;SDS011;31871;49.418;8.752;2022-07-22T10:56:24;8.48;;;5.60;;
46136;SDS011;31871;49.418;8.752;2022-07-22T10:59:16;11.85;;;5.55;;
46136;SDS011;31871;49.418;8.752;2022-07-22T11:01:47;10.00;;;5.30;;
46136;SDS011;31871;49.418;8.752;2022-07-22T11:04:17;8.63;;;5.43;;
46136;SDS011;31871;49.418;8.752;2022-07-22T11:06:47;8.85;;;5.47;;
46136;SDS011;31871;49.418;8.752;2022-07-22T11:09:14;10.82;;;5.68;;
46136;SDS011;31871;49.418;8.752;2022-07-22T11:11:51;8.90;;;5.53;;
46136;SDS011;31871;49.418;8.752;2022-07-22T11:14:20;8.98;;;5.22;;
46136;SDS011;31871;49.418;8.752;2022-07-22T11:17:00;9.38;;;5.50;;
46136;SDS011;31871;49.418;8.752;2022-07-22T11:21:59;7.82;;;5.35;;
46136;SDS011;31871;49.418;8.752;2022-07-22T11:24:27;8.07;;;4.75;;
46136;SDS011;31871;49.418;8.752;2022-07-22T11:26:54;8.13;;;5.35;;
46136;SDS011;31871;49.418;8.752;2022-07-22T11:29:27;10.57;;;5.45;;
46136;SDS011;31871;49.418;8.752;2022-07-22T11:31:55;8.63;;;5.10;;
46136;SDS011;31871;49.418;8.752;2022-07-22T11:34:22;8.43;;;5.55;;
46136;SDS011;31871;49.418;8.752;2022-07-22T11:36:49;9.38;;;5.13;;
46136;SDS011;31871;49.418;8.752;2022-07-22T11:39:18;7.45;;;4.65;;
46136;SDS011;31871;49.418;8.752;2022-07-22T11:41:45;11.27;;;5.35;;
46136;SDS011;31871;49.418;8.752;2022-07-22T11:44:11;7.50;;;5.07;;
46136;SDS011;31871;49.418;8.752;2022-07-22T11:46:37;8.18;;;4.97;;
46136;SDS011;31871;49.418;8.752;2022-07-22T11:49:04;7.25;;;5.03;;
46136;SDS011;31871;49.418;8.752;2022-07-22T11:51:32;8.82;;;5.18;;
46136;SDS011;31871;49.418;8.752;2022-07-22T11:53:59;9.38;;;5.07;;
46136;SDS011;31871;49.418;8.752;2022-07-22T11:56:25;11.77;;;5.32;;
46136;SDS011;31871;49.418;8.752;2022-07-22T11:58:52;8.50;;;5.13;;
46136;SDS011;31871;49.418;8.752;2022-07-22T12:01:25;9.65;;;5.22;;
46136;SDS011;31871;49.418;8.752;2022-07-22T12:03:59;6.15;;;4.28;;
46136;SDS011;31871;49.418;8.752;2022-07-22T12:06:33;9.52;;;4.82;;
46136;SDS011;31871;49.418;8.752;2022-07-22T12:11:36;7.18;;;4.93;;
46136;SDS011;31871;49.418;8.752;2022-07-22T12:14:04;7.90;;;4.72;;
46136;SDS011;31871;49.418;8.752;2022-07-22T12:16:35;8.88;;;5.15;;
46136;SDS011;31871;49.418;8.752;2022-07-22T12:19:03;9.60;;;5.68;;
46136;SDS011;31871;49.418;8.752;2022-07-22T12:21:34;10.68;;;5.22;;
46136;SDS011;31871;49.418;8.752;2022-07-22T12:32:01;9.35;;;4.72;;
46136;SDS011;31871;49.418;8.752;2022-07-22T12:34:42;8.00;;;5.20;;
46136;SDS011;31871;49.418;8.752;2022-07-22T12:37:22;9.93;;;5.40;;
46136;SDS011;31871;49.418;8.752;2022-07-22T12:42:39;11.32;;;5.32;;
46136;SDS011;31871;49.418;8.752;2022-07-22T12:52:54;10.88;;;5.15;;
46136;SDS011;31871;49.418;8.752;2022-07-22T12:55:29;9.45;;;5.30;;
46136;SDS011;31871;49.418;8.752;2022-07-22T12:57:55;9.50;;;5.30;;
46136;SDS011;31871;49.418;8.752;2022-07-22T13:00:31;7.82;;;5.25;;
46136;SDS011;31871;49.418;8.752;2022-07-22T13:03:01;9.95;;;4.72;;
46136;SDS011;31871;49.418;8.752;2022-07-22T13:05:27;8.35;;;4.70;;
46136;SDS011;31871;49.418;8.752;2022-07-22T13:07:53;8.40;;;4.78;;
46136;SDS011;31871;49.418;8.752;2022-07-22T13:10:23;7.70;;;4.90;;
46136;SDS011;31871;49.418;8.752;2022-07-22T13:12:49;6.38;;;4.47;;
46136;SDS011;31871;49.418;8.752;2022-07-22T13:15:16;9.25;;;4.82;;
46136;SDS011;31871;49.418;8.752;2022-07-22T13:17:41;6.55;;;4.47;;
46136;SDS011;31871;49.418;8.752;2022-07-22T13:20:08;10.35;;;4.60;;
46136;SDS011;31871;49.418;8.752;2022-07-22T13:22:34;6.93;;;4.82;;
46136;SDS011;31871;49.418;8.752;2022-07-22T13:25:00;10.57;;;5.65;;
46136;SDS011;31871;49.418;8.752;2022-07-22T13:27:26;8.15;;;5.07;;
46136;SDS011;31871;49.418;8.752;2022-07-22T13:29:52;8.18;;;4.85;;
46136;SDS011;31871;49.418;8.752;2022-07-22T13:32:18;8.43;;;4.30;;
46136;SDS011;31871;49.418;8.752;2022-07-22T13:34:43;9.57;;;4.72;;
46136;SDS011;31871;49.418;8.752;2022-07-22T13:37:09;7.57;;;4.80;;
46136;SDS011;31871;49.418;8.752;2022-07-22T13:39:35;10.25;;;5.20;;
46136;SDS011;31871;49.418;8.752;2022-07-22T13:42:01;9.93;;;5.50;;
46136;SDS011;31871;49.418;8.752;2022-07-22T13:44:28;7.10;;;4.85;;
46136;SDS011;31871;49.418;8.752;2022-07-22T13:46:56;9.52;;;4.95;;
46136;SDS011;31871;49.418;8.752;2022-07-22T13:49:23;11.35;;;5.30;;
46136;SDS011;31871;49.418;8.752;2022-07-22T13:51:48;9.93;;;5.40;;
46136;SDS011;31871;49.418;8.752;2022-07-22T13:54:16;9.82;;;5.10;;
46136;SDS011;31871;49.418;8.752;2022-07-22T13:56:42;11.38;;;4.70;;
46136;SDS011;31871;49.418;8.752;2022-07-22T13:59:09;8.55;;;4.85;;
46136;SDS011;31871;49.418;8.752;2022-07-22T14:01:36;10.10;;;5.45;;
46136;SDS011;31871;49.418;8.752;2022-07-22T14:04:02;8.98;;;4.93;;
46136;SDS011;31871;49.418;8.752;2022-07-22T14:06:29;7.53;;;4.47;;
46136;SDS011;31871;49.418;8.752;2022-07-22T14:08:54;7.72;;;5.15;;
46136;SDS011;31871;49.418;8.752;2022-07-22T14:11:20;10.88;;;5.35;;
46136;SDS011;31871;49.418;8.752;2022-07-22T14:13:45;9.45;;;5.28;;
46136;SDS011;31871;49.418;8.752;2022-07-22T14:16:11;6.75;;;5.10;;
46136;SDS011;31871;49.418;8.752;2022-07-22T14:18:55;14.85;;;5.72;;
46136;SDS011;31871;49.418;8.752;2022-07-22T14:21:21;13.68;;;5.72;;
46136;SDS011;31871;49.418;8.752;2022-07-22T14:23:46;8.07;;;5.00;;
46136;SDS011;31871;49.418;8.752;2022-07-22T14:26:12;7.65;;;4.93;;
46136;SDS011;31871;49.418;8.752;2022-07-22T14:28:37;9.07;;;5.20;;
46136;SDS011;31871;49.418;8.752;2022-07-22T14:31:03;11.02;;;4.85;;
46136;SDS011;31871;49.418;8.752;2022-07-22T14:33:29;11.82;;;5.38;;
46136;SDS011;31871;49.418;8.752;2022-07-22T14:35:54;9.82;;;4.88;;
46136;SDS011;31871;49.418;8.752;2022-07-22T14:38:20;9.73;;;5.63;;
46136;SDS011;31871;49.418;8.752;2022-07-22T14:40:45;9.35;;;5.38;;
46136;SDS011;31871;49.418;8.752;2022-07-22T14:43:11;8.55;;;5.20;;
46136;SDS011;31871;49.418;8.752;2022-07-22T14:45:37;8.40;;;5.15;;
46136;SDS011;31871;49.418;8.752;2022-07-22T14:48:02;10.45;;;5.35;;
46136;SDS011;31871;49.418;8.752;2022-07-22T14:50:28;7.85;;;5.22;;
46136;SDS011;31871;49.418;8.752;2022-07-22T14:52:54;9.88;;;5.30;;
46136;SDS011;31871;49.418;8.752;2022-07-22T14:55:19;8.65;;;4.90;;
46136;SDS011;31871;49.418;8.752;2022-07-22T14:57:45;10.23;;;5.18;;
46136;SDS011;31871;49.418;8.752;2022-07-22T15:00:11;10.80;;;4.85;;
46136;SDS011;31871;49.418;8.752;2022-07-22T15:02:36;9.40;;;4.93;;
46136;SDS011;31871;49.418;8.752;2022-07-22T15:05:02;8.50;;;4.85;;
46136;SDS011;31871;49.418;8.752;2022-07-22T15:07:28;6.93;;;4.72;;
46136;SDS011;31871;49.418;8.752;2022-07-22T15:09:54;10.15;;;4.75;;
46136;SDS011;31871;49.418;8.752;2022-07-22T15:12:19;10.90;;;5.07;;
46136;SDS011;31871;49.418;8.752;2022-07-22T15:14:45;13.73;;;5.18;;
46136;SDS011;31871;49.418;8.752;2022-07-22T15:17:10;8.45;;;4.45;;
46136;SDS011;31871;49.418;8.752;2022-07-22T15:19:36;10.25;;;4.88;;
46136;SDS011;31871;49.418;8.752;2022-07-22T15:22:01;6.82;;;4.70;;
46136;SDS011;31871;49.418;8.752;2022-07-22T15:24:27;9.27;;;4.43;;